sensor_id;sensor_type;location;lat;lon;timestamp;pressure;altitude;pressure_sealevel;temperature;humidity
57900;BME280;60605;53.716;19.940;2023-04-07T00:03:21;100605.02;;;3.79;100.00
57900;BME280;60605;53.716;19.940;2023-04-07T00:08:24;100602.58;;;3.81;100.00
57900;BME280;60605;53.716;19.940;2023-04-07T00:13:26;100602.14;;;3.82;100.00
57900;BME280;60605;53.716;19.940;2023-04-07T00:18:28;100602.55;;;3.84;100.00
57900;BME280;60605;53.716;19.940;2023-04-07T00:23:30;100605.20;;;3.87;100.00
57900;BME280;60605;53.716;19.940;2023-04-07T00:28:32;100603.66;;;3.88;100.00
57900;BME280;60605;53.716;19.940;2023-04-07T00:33:34;100598.43;;;3.90;100.00
57900;BME280;60605;53.716;19.940;2023-04-07T00:38:36;100596.44;;;3.91;100.00
57900;BME280;60605;53.716;19.940;2023-04-07T00:43:38;100593.48;;;3.93;100.00
57900;BME280;60605;53.716;19.940;2023-04-07T00:48:40;100586.73;;;3.93;100.00
57900;BME280;60605;53.716;19.940;2023-04-07T00:53:42;100585.08;;;3.94;100.00
57900;BME280;60605;53.716;19.940;2023-04-07T00:58:44;100583.66;;;3.97;100.00
57900;BME280;60605;53.716;19.940;2023-04-07T01:03:53;100582.85;;;3.99;100.00
57900;BME280;60605;53.716;19.940;2023-04-07T01:14:23;100573.24;;;4.02;100.00
57900;BME280;60605;53.716;19.940;2023-04-07T01:19:39;100571.60;;;4.03;100.00
57900;BME280;60605;53.716;19.940;2023-04-07T01:29:52;100568.98;;;4.05;100.00
57900;BME280;60605;53.716;19.940;2023-04-07T01:34:55;100564.52;;;4.05;100.00
57900;BME280;60605;53.716;19.940;2023-04-07T01:39:58;100563.51;;;4.07;100.00
57900;BME280;60605;53.716;19.940;2023-04-07T01:45:01;100558.42;;;4.09;100.00
57900;BME280;60605;53.716;19.940;2023-04-07T01:50:04;100555.30;;;4.11;100.00
57900;BME280;60605;53.716;19.940;2023-04-07T01:55:09;100548.27;;;4.13;100.00
57900;BME280;60605;53.716;19.940;2023-04-07T02:00:12;100547.44;;;4.15;100.00
57900;BME280;60605;53.716;19.940;2023-04-07T02:05:18;100548.73;;;4.16;100.00
57900;BME280;60605;53.716;19.940;2023-04-07T02:10:23;100552.83;;;4.19;100.00
57900;BME280;60605;53.716;19.940;2023-04-07T02:15:26;100552.18;;;4.20;100.00
57900;BME280;60605;53.716;19.940;2023-04-07T02:20:29;100552.55;;;4.22;100.00
57900;BME280;60605;53.716;19.940;2023-04-07T02:25:32;100547.48;;;4.24;100.00
57900;BME280;60605;53.716;19.940;2023-04-07T02:30:34;100548.52;;;4.27;100.00
57900;BME280;60605;53.716;19.940;2023-04-07T02:35:37;100541.26;;;4.30;100.00
57900;BME280;60605;53.716;19.940;2023-04-07T02:40:39;100538.05;;;4.33;100.00
57900;BME280;60605;53.716;19.940;2023-04-07T02:45:41;100534.01;;;4.35;100.00
57900;BME280;60605;53.716;19.940;2023-04-07T02:50:43;100533.55;;;4.36;100.00
57900;BME280;60605;53.716;19.940;2023-04-07T02:55:45;100534.82;;;4.38;100.00
57900;BME280;60605;53.716;19.940;2023-04-07T03:00:47;100531.16;;;4.40;100.00
57900;BME280;60605;53.716;19.940;2023-04-07T03:05:51;100514.02;;;4.42;100.00
57900;BME280;60605;53.716;19.940;2023-04-07T03:10:53;100515.98;;;4.44;100.00
57900;BME280;60605;53.716;19.940;2023-04-07T03:15:56;100527.52;;;4.46;100.00
57900;BME280;60605;53.716;19.940;2023-04-07T03:20:58;100524.70;;;4.49;100.00
57900;BME280;60605;53.716;19.940;2023-04-07T03:26:01;100523.27;;;4.51;100.00
57900;BME280;60605;53.716;19.940;2023-04-07T03:31:03;100528.10;;;4.53;100.00
57900;BME280;60605;53.716;19.940;2023-04-07T03:36:06;100521.30;;;4.54;100.00
57900;BME280;60605;53.716;19.940;2023-04-07T03:41:08;100519.58;;;4.56;100.00
57900;BME280;60605;53.716;19.940;2023-04-07T03:46:10;100528.83;;;4.58;100.00
57900;BME280;60605;53.716;19.940;2023-04-07T03:51:12;100533.55;;;4.61;100.00
57900;BME280;60605;53.716;19.940;2023-04-07T03:56:14;100531.67;;;4.62;100.00
57900;BME280;60605;53.716;19.940;2023-04-07T04:01:16;100527.83;;;4.64;100.00
57900;BME280;60605;53.716;19.940;2023-04-07T04:06:18;100530.37;;;4.66;100.00
57900;BME280;60605;53.716;19.940;2023-04-07T04:11:20;100527.73;;;4.68;100.00
57900;BME280;60605;53.716;19.940;2023-04-07T04:16:22;100525.81;;;4.70;100.00
57900;BME280;60605;53.716;19.940;2023-04-07T04:21:24;100533.60;;;4.72;100.00
57900;BME280;60605;53.716;19.940;2023-04-07T04:26:27;100533.95;;;4.75;100.00
57900;BME280;60605;53.716;19.940;2023-04-07T04:31:30;100537.49;;;4.77;100.00
57900;BME280;60605;53.716;19.940;2023-04-07T04:36:33;100539.70;;;4.81;100.00
57900;BME280;60605;53.716;19.940;2023-04-07T04:41:37;100542.19;;;4.83;100.00
57900;BME280;60605;53.716;19.940;2023-04-07T04:46:39;100544.36;;;4.87;100.00
57900;BME280;60605;53.716;19.940;2023-04-07T04:51:41;100551.13;;;4.92;100.00
57900;BME280;60605;53.716;19.940;2023-04-07T04:56:43;100552.67;;;4.97;100.00
57900;BME280;60605;53.716;19.940;2023-04-07T05:01:44;100553.70;;;5.02;100.00
57900;BME280;60605;53.716;19.940;2023-04-07T05:06:47;100554.97;;;5.07;100.00
57900;BME280;60605;53.716;19.940;2023-04-07T05:11:49;100552.36;;;5.13;100.00
57900;BME280;60605;53.716;19.940;2023-04-07T05:16:51;100552.08;;;5.20;100.00
57900;BME280;60605;53.716;19.940;2023-04-07T05:21:54;100554.25;;;5.26;100.00
57900;BME280;60605;53.716;19.940;2023-04-07T05:26:56;100559.17;;;5.34;100.00
57900;BME280;60605;53.716;19.940;2023-04-07T05:31:59;100558.81;;;5.41;100.00
57900;BME280;60605;53.716;19.940;2023-04-07T05:37:02;100558.51;;;5.48;100.00
57900;BME280;60605;53.716;19.940;2023-04-07T05:42:04;100554.11;;;5.55;100.00
57900;BME280;60605;53.716;19.940;2023-04-07T05:47:06;100546.92;;;5.61;100.00
57900;BME280;60605;53.716;19.940;2023-04-07T05:52:09;100549.72;;;5.66;100.00
57900;BME280;60605;53.716;19.940;2023-04-07T05:57:11;100553.19;;;5.74;100.00
57900;BME280;60605;53.716;19.940;2023-04-07T06:02:14;100550.25;;;5.82;100.00
57900;BME280;60605;53.716;19.940;2023-04-07T06:07:16;100552.13;;;5.88;100.00
57900;BME280;60605;53.716;19.940;2023-04-07T06:12:18;100555.20;;;5.92;100.00
57900;BME280;60605;53.716;19.940;2023-04-07T06:17:20;100561.21;;;5.99;100.00
57900;BME280;60605;53.716;19.940;2023-04-07T06:22:22;100563.02;;;6.05;100.00
57900;BME280;60605;53.716;19.940;2023-04-07T06:27:24;100556.80;;;6.12;100.00
57900;BME280;60605;53.716;19.940;2023-04-07T06:32:26;100560.91;;;6.23;100.00
57900;BME280;60605;53.716;19.940;2023-04-07T06:37:28;100570.88;;;6.32;100.00
57900;BME280;60605;53.716;19.940;2023-04-07T06:42:30;100567.87;;;6.38;100.00
57900;BME280;60605;53.716;19.940;2023-04-07T06:47:32;100569.57;;;6.44;100.00
57900;BME280;60605;53.716;19.940;2023-04-07T06:52:34;100569.00;;;6.46;100.00
57900;BME280;60605;53.716;19.940;2023-04-07T06:57:36;100562.05;;;6.49;100.00
57900;BME280;60605;53.716;19.940;2023-04-07T07:02:38;100558.69;;;6.51;100.00
57900;BME280;60605;53.716;19.940;2023-04-07T07:07:41;100561.04;;;6.55;100.00
57900;BME280;60605;53.716;19.940;2023-04-07T07:12:43;100559.31;;;6.66;100.00
57900;BME280;60605;53.716;19.940;2023-04-07T07:17:44;100554.15;;;6.79;100.00
57900;BME280;60605;53.716;19.940;2023-04-07T07:22:46;100551.12;;;6.92;100.00
57900;BME280;60605;53.716;19.940;2023-04-07T07:27:48;100554.51;;;6.99;100.00
57900;BME280;60605;53.716;19.940;2023-04-07T07:32:54;100565.20;;;7.00;100.00
57900;BME280;60605;53.716;19.940;2023-04-07T07:37:57;100576.51;;;6.99;100.00
57900;BME280;60605;53.716;19.940;2023-04-07T07:42:59;100585.14;;;6.98;100.00
57900;BME280;60605;53.716;19.940;2023-04-07T07:48:01;100590.48;;;7.02;100.00
57900;BME280;60605;53.716;19.940;2023-04-07T07:53:03;100589.52;;;7.14;100.00
57900;BME280;60605;53.716;19.940;2023-04-07T07:58:06;100591.45;;;7.27;100.00
57900;BME280;60605;53.716;19.940;2023-04-07T08:03:07;100583.86;;;7.35;100.00
57900;BME280;60605;53.716;19.940;2023-04-07T08:08:09;100580.73;;;7.43;100.00
57900;BME280;60605;53.716;19.940;2023-04-07T08:13:12;100577.67;;;7.52;100.00
57900;BME280;60605;53.716;19.940;2023-04-07T08:18:13;100574.25;;;7.63;100.00
57900;BME280;60605;53.716;19.940;2023-04-07T08:23:15;100575.09;;;7.83;100.00
57900;BME280;60605;53.716;19.940;2023-04-07T08:28:17;100575.52;;;8.11;100.00
57900;BME280;60605;53.716;19.940;2023-04-07T08:33:19;100574.55;;;8.45;100.00
57900;BME280;60605;53.716;19.940;2023-04-07T08:38:21;100575.57;;;8.86;100.00
57900;BME280;60605;53.716;19.940;2023-04-07T08:43:25;100571.23;;;9.19;100.00
57900;BME280;60605;53.716;19.940;2023-04-07T08:48:29;100564.23;;;9.43;100.00
57900;BME280;60605;53.716;19.940;2023-04-07T08:53:40;100566.66;;;10.37;100.00
57900;BME280;60605;53.716;19.940;2023-04-07T08:58:47;100565.67;;;11.36;100.00
57900;BME280;60605;53.716;19.940;2023-04-07T09:03:49;100565.22;;;11.33;99.49
57900;BME280;60605;53.716;19.940;2023-04-07T09:08:52;100561.52;;;11.34;98.84
57900;BME280;60605;53.716;19.940;2023-04-07T09:13:54;100557.83;;;11.50;97.88
57900;BME280;60605;53.716;19.940;2023-04-07T09:18:57;100564.44;;;11.97;96.06
57900;BME280;60605;53.716;19.940;2023-04-07T09:24:00;100565.11;;;12.57;91.59
57900;BME280;60605;53.716;19.940;2023-04-07T09:29:02;100562.15;;;12.34;90.36
57900;BME280;60605;53.716;19.940;2023-04-07T09:34:26;100565.73;;;12.35;91.52
57900;BME280;60605;53.716;19.940;2023-04-07T09:39:28;100570.64;;;12.74;89.05
57900;BME280;60605;53.716;19.940;2023-04-07T09:44:38;100565.92;;;12.73;87.64
57900;BME280;60605;53.716;19.940;2023-04-07T09:49:52;100552.89;;;13.26;86.93
57900;BME280;60605;53.716;19.940;2023-04-07T09:54:55;100561.64;;;13.42;84.73
57900;BME280;60605;53.716;19.940;2023-04-07T09:59:58;100562.87;;;13.29;85.04
57900;BME280;60605;53.716;19.940;2023-04-07T10:05:01;100564.66;;;13.62;85.40
57900;BME280;60605;53.716;19.940;2023-04-07T10:10:04;100569.98;;;14.31;81.59
57900;BME280;60605;53.716;19.940;2023-04-07T10:15:12;100571.38;;;14.63;79.73
57900;BME280;60605;53.716;19.940;2023-04-07T10:20:18;100568.69;;;14.54;79.93
57900;BME280;60605;53.716;19.940;2023-04-07T10:25:23;100571.85;;;14.50;77.42
57900;BME280;60605;53.716;19.940;2023-04-07T10:30:29;100569.95;;;14.33;77.52
57900;BME280;60605;53.716;19.940;2023-04-07T10:41:35;100555.63;;;14.59;78.31
57900;BME280;60605;53.716;19.940;2023-04-07T10:57:14;100537.73;;;14.95;76.27
57900;BME280;60605;53.716;19.940;2023-04-07T11:07:49;100518.67;;;15.12;77.14
57900;BME280;60605;53.716;19.940;2023-04-07T11:13:02;100512.98;;;15.36;76.90
57900;BME280;60605;53.716;19.940;2023-04-07T11:23:09;100512.00;;;15.58;76.60
57900;BME280;60605;53.716;19.940;2023-04-07T11:28:12;100507.08;;;15.74;74.47
57900;BME280;60605;53.716;19.940;2023-04-07T11:33:16;100504.55;;;15.80;73.75
57900;BME280;60605;53.716;19.940;2023-04-07T11:38:18;100500.16;;;15.88;74.00
57900;BME280;60605;53.716;19.940;2023-04-07T11:43:26;100498.50;;;16.10;74.42
57900;BME280;60605;53.716;19.940;2023-04-07T11:48:31;100491.69;;;16.19;73.12
57900;BME280;60605;53.716;19.940;2023-04-07T11:53:35;100495.27;;;16.24;72.04
57900;BME280;60605;53.716;19.940;2023-04-07T11:58:48;100486.90;;;16.48;72.16
57900;BME280;60605;53.716;19.940;2023-04-07T12:04:02;100485.43;;;16.78;70.55
57900;BME280;60605;53.716;19.940;2023-04-07T12:09:04;100489.64;;;16.90;69.40
57900;BME280;60605;53.716;19.940;2023-04-07T12:14:06;100483.75;;;16.95;68.79
57900;BME280;60605;53.716;19.940;2023-04-07T12:19:09;100480.34;;;17.08;68.97
57900;BME280;60605;53.716;19.940;2023-04-07T12:24:13;100487.10;;;17.28;68.41
57900;BME280;60605;53.716;19.940;2023-04-07T12:29:17;100486.66;;;17.53;67.07
57900;BME280;60605;53.716;19.940;2023-04-07T12:34:21;100487.88;;;17.94;66.50
57900;BME280;60605;53.716;19.940;2023-04-07T12:39:23;100488.86;;;18.24;65.27
57900;BME280;60605;53.716;19.940;2023-04-07T12:44:24;100495.63;;;18.14;64.61
57900;BME280;60605;53.716;19.940;2023-04-07T12:49:27;100495.99;;;18.00;63.45
57900;BME280;60605;53.716;19.940;2023-04-07T12:54:29;100490.44;;;17.98;63.99
57900;BME280;60605;53.716;19.940;2023-04-07T12:59:31;100493.73;;;17.98;63.42
57900;BME280;60605;53.716;19.940;2023-04-07T13:04:33;100496.89;;;17.79;63.37
57900;BME280;60605;53.716;19.940;2023-04-07T13:09:36;100501.17;;;17.57;64.02
57900;BME280;60605;53.716;19.940;2023-04-07T13:14:39;100503.89;;;17.48;65.07
57900;BME280;60605;53.716;19.940;2023-04-07T13:20:01;100504.94;;;17.61;65.93
57900;BME280;60605;53.716;19.940;2023-04-07T13:25:06;100498.70;;;17.78;64.84
57900;BME280;60605;53.716;19.940;2023-04-07T13:30:09;100491.48;;;17.95;64.77
57900;BME280;60605;53.716;19.940;2023-04-07T13:35:12;100494.63;;;18.19;64.16
57900;BME280;60605;53.716;19.940;2023-04-07T13:40:14;100494.73;;;18.22;62.73
57900;BME280;60605;53.716;19.940;2023-04-07T13:45:17;100494.83;;;18.00;62.90
57900;BME280;60605;53.716;19.940;2023-04-07T13:50:19;100488.54;;;17.71;64.17
57900;BME280;60605;53.716;19.940;2023-04-07T13:55:21;100488.17;;;17.57;64.85
57900;BME280;60605;53.716;19.940;2023-04-07T14:00:23;100480.31;;;17.62;65.34
57900;BME280;60605;53.716;19.940;2023-04-07T14:05:24;100475.68;;;17.83;65.01
57900;BME280;60605;53.716;19.940;2023-04-07T14:10:27;100476.41;;;17.89;64.24
57900;BME280;60605;53.716;19.940;2023-04-07T14:15:29;100474.61;;;17.67;64.21
57900;BME280;60605;53.716;19.940;2023-04-07T14:20:32;100475.84;;;17.50;65.28
57900;BME280;60605;53.716;19.940;2023-04-07T14:25:34;100479.72;;;17.38;65.41
57900;BME280;60605;53.716;19.940;2023-04-07T14:30:37;100481.00;;;17.23;65.15
57900;BME280;60605;53.716;19.940;2023-04-07T14:35:39;100480.11;;;17.16;65.96
57900;BME280;60605;53.716;19.940;2023-04-07T14:40:42;100479.47;;;17.15;66.19
57900;BME280;60605;53.716;19.940;2023-04-07T14:45:46;100479.58;;;17.07;65.63
57900;BME280;60605;53.716;19.940;2023-04-07T14:50:49;100483.52;;;16.93;65.92
57900;BME280;60605;53.716;19.940;2023-04-07T14:56:04;100480.04;;;16.77;66.53
57900;BME280;60605;53.716;19.940;2023-04-07T15:01:07;100478.88;;;16.68;67.21
57900;BME280;60605;53.716;19.940;2023-04-07T15:06:10;100478.38;;;16.62;67.22
57900;BME280;60605;53.716;19.940;2023-04-07T15:11:14;100475.70;;;16.53;67.82
57900;BME280;60605;53.716;19.940;2023-04-07T15:16:16;100474.67;;;16.47;68.31
57900;BME280;60605;53.716;19.940;2023-04-07T15:21:18;100480.23;;;16.37;68.32
57900;BME280;60605;53.716;19.940;2023-04-07T15:26:19;100479.36;;;16.29;68.95
57900;BME280;60605;53.716;19.940;2023-04-07T15:31:22;100481.12;;;16.26;69.20
57900;BME280;60605;53.716;19.940;2023-04-07T15:36:26;100490.59;;;16.23;69.16
57900;BME280;60605;53.716;19.940;2023-04-07T15:41:28;100486.87;;;16.17;69.49
57900;BME280;60605;53.716;19.940;2023-04-07T15:46:29;100483.38;;;16.15;69.71
57900;BME280;60605;53.716;19.940;2023-04-07T15:51:32;100484.07;;;16.12;69.71
57900;BME280;60605;53.716;19.940;2023-04-07T15:56:34;100488.77;;;16.06;69.75
57900;BME280;60605;53.716;19.940;2023-04-07T16:01:36;100493.08;;;16.01;70.22
57900;BME280;60605;53.716;19.940;2023-04-07T16:06:39;100496.52;;;15.93;70.58
57900;BME280;60605;53.716;19.940;2023-04-07T16:11:41;100496.63;;;15.83;71.01
57900;BME280;60605;53.716;19.940;2023-04-07T16:16:43;100501.04;;;15.73;71.37
57900;BME280;60605;53.716;19.940;2023-04-07T16:21:45;100508.64;;;15.64;71.83
57900;BME280;60605;53.716;19.940;2023-04-07T16:26:47;100513.58;;;15.52;72.65
57900;BME280;60605;53.716;19.940;2023-04-07T16:31:53;100523.51;;;15.35;74.35
57900;BME280;60605;53.716;19.940;2023-04-07T16:36:55;100539.78;;;15.10;76.16
57900;BME280;60605;53.716;19.940;2023-04-07T16:41:58;100570.66;;;14.77;80.15
57900;BME280;60605;53.716;19.940;2023-04-07T16:47:00;100587.45;;;14.19;85.58
57900;BME280;60605;53.716;19.940;2023-04-07T16:52:04;100589.30;;;13.61;89.41
57900;BME280;60605;53.716;19.940;2023-04-07T16:57:07;100592.14;;;13.20;91.23
57900;BME280;60605;53.716;19.940;2023-04-07T17:02:13;100588.76;;;12.91;92.98
57900;BME280;60605;53.716;19.940;2023-04-07T17:07:19;100596.99;;;12.71;94.70
57900;BME280;60605;53.716;19.940;2023-04-07T17:12:21;100603.59;;;12.54;96.04
57900;BME280;60605;53.716;19.940;2023-04-07T17:17:24;100618.83;;;12.38;97.61
57900;BME280;60605;53.716;19.940;2023-04-07T17:22:27;100628.50;;;12.20;99.47
57900;BME280;60605;53.716;19.940;2023-04-07T17:27:31;100629.58;;;12.03;100.00
57900;BME280;60605;53.716;19.940;2023-04-07T17:32:33;100630.96;;;11.88;100.00
57900;BME280;60605;53.716;19.940;2023-04-07T17:37:35;100637.59;;;11.77;100.00
57900;BME280;60605;53.716;19.940;2023-04-07T17:42:38;100643.23;;;11.69;100.00
57900;BME280;60605;53.716;19.940;2023-04-07T17:47:41;100652.91;;;11.63;100.00
57900;BME280;60605;53.716;19.940;2023-04-07T17:52:43;100658.06;;;11.60;100.00
57900;BME280;60605;53.716;19.940;2023-04-07T17:57:45;100656.41;;;11.57;100.00
57900;BME280;60605;53.716;19.940;2023-04-07T18:02:48;100661.08;;;11.53;100.00
57900;BME280;60605;53.716;19.940;2023-04-07T18:07:52;100675.18;;;11.48;100.00
57900;BME280;60605;53.716;19.940;2023-04-07T18:12:55;100687.70;;;11.44;100.00
57900;BME280;60605;53.716;19.940;2023-04-07T18:17:58;100700.78;;;11.42;100.00
57900;BME280;60605;53.716;19.940;2023-04-07T18:23:01;100716.98;;;11.41;100.00
57900;BME280;60605;53.716;19.940;2023-04-07T18:28:04;100719.52;;;11.42;100.00
57900;BME280;60605;53.716;19.940;2023-04-07T18:33:08;100723.38;;;11.43;100.00
57900;BME280;60605;53.716;19.940;2023-04-07T18:38:10;100735.52;;;11.43;100.00
57900;BME280;60605;53.716;19.940;2023-04-07T18:43:13;100735.92;;;11.43;100.00
57900;BME280;60605;53.716;19.940;2023-04-07T18:48:20;100742.27;;;11.37;100.00
57900;BME280;60605;53.716;19.940;2023-04-07T18:53:24;100752.08;;;11.29;100.00
57900;BME280;60605;53.716;19.940;2023-04-07T18:58:28;100761.03;;;11.22;100.00
57900;BME280;60605;53.716;19.940;2023-04-07T19:03:31;100767.54;;;11.16;100.00
57900;BME280;60605;53.716;19.940;2023-04-07T19:08:35;100769.70;;;11.08;100.00
57900;BME280;60605;53.716;19.940;2023-04-07T19:13:38;100763.38;;;11.01;100.00
57900;BME280;60605;53.716;19.940;2023-04-07T19:18:41;100762.22;;;10.97;100.00
57900;BME280;60605;53.716;19.940;2023-04-07T19:23:43;100765.55;;;10.93;100.00
57900;BME280;60605;53.716;19.940;2023-04-07T19:28:48;100759.10;;;10.90;100.00
57900;BME280;60605;53.716;19.940;2023-04-07T19:33:51;100758.73;;;10.86;100.00
57900;BME280;60605;53.716;19.940;2023-04-07T19:38:53;100761.24;;;10.82;100.00
57900;BME280;60605;53.716;19.940;2023-04-07T19:43:55;100769.49;;;10.78;100.00
57900;BME280;60605;53.716;19.940;2023-04-07T19:48:58;100775.95;;;10.74;100.00
57900;BME280;60605;53.716;19.940;2023-04-07T19:54:00;100779.08;;;10.69;100.00
57900;BME280;60605;53.716;19.940;2023-04-07T19:59:02;100786.08;;;10.65;100.00
57900;BME280;60605;53.716;19.940;2023-04-07T20:04:04;100788.24;;;10.61;100.00
57900;BME280;60605;53.716;19.940;2023-04-07T20:09:06;100789.70;;;10.56;100.00
57900;BME280;60605;53.716;19.940;2023-04-07T20:14:08;100798.59;;;10.53;100.00
57900;BME280;60605;53.716;19.940;2023-04-07T20:19:10;100804.51;;;10.51;100.00
57900;BME280;60605;53.716;19.940;2023-04-07T20:24:12;100812.45;;;10.48;100.00
57900;BME280;60605;53.716;19.940;2023-04-07T20:29:14;100819.70;;;10.45;100.00
57900;BME280;60605;53.716;19.940;2023-04-07T20:34:17;100823.91;;;10.42;100.00
57900;BME280;60605;53.716;19.940;2023-04-07T20:39:19;100831.58;;;10.36;100.00
57900;BME280;60605;53.716;19.940;2023-04-07T20:44:21;100838.89;;;10.30;100.00
57900;BME280;60605;53.716;19.940;2023-04-07T20:49:23;100848.79;;;10.26;100.00
57900;BME280;60605;53.716;19.940;2023-04-07T20:54:25;100857.65;;;10.25;100.00
57900;BME280;60605;53.716;19.940;2023-04-07T20:59:27;100865.57;;;10.26;100.00
57900;BME280;60605;53.716;19.940;2023-04-07T21:04:29;100873.30;;;10.27;100.00
57900;BME280;60605;53.716;19.940;2023-04-07T21:09:32;100877.54;;;10.22;100.00
57900;BME280;60605;53.716;19.940;2023-04-07T21:14:34;100882.77;;;10.05;100.00
57900;BME280;60605;53.716;19.940;2023-04-07T21:19:36;100891.90;;;9.86;100.00
57900;BME280;60605;53.716;19.940;2023-04-07T21:24:38;100894.54;;;9.70;100.00
57900;BME280;60605;53.716;19.940;2023-04-07T21:29:40;100896.63;;;9.57;100.00
57900;BME280;60605;53.716;19.940;2023-04-07T21:34:44;100893.42;;;9.40;100.00
57900;BME280;60605;53.716;19.940;2023-04-07T21:39:47;100895.83;;;9.23;100.00
57900;BME280;60605;53.716;19.940;2023-04-07T21:44:49;100894.45;;;9.07;100.00
57900;BME280;60605;53.716;19.940;2023-04-07T21:49:51;100893.69;;;8.93;100.00
57900;BME280;60605;53.716;19.940;2023-04-07T21:54:54;100895.94;;;8.76;100.00
57900;BME280;60605;53.716;19.940;2023-04-07T21:59:56;100903.94;;;8.62;100.00
57900;BME280;60605;53.716;19.940;2023-04-07T22:04:57;100905.87;;;8.49;100.00
57900;BME280;60605;53.716;19.940;2023-04-07T22:10:00;100907.76;;;8.39;100.00
57900;BME280;60605;53.716;19.940;2023-04-07T22:15:02;100907.89;;;8.33;100.00
57900;BME280;60605;53.716;19.940;2023-04-07T22:20:07;100911.29;;;8.26;100.00
57900;BME280;60605;53.716;19.940;2023-04-07T22:25:10;100911.89;;;8.16;100.00
57900;BME280;60605;53.716;19.940;2023-04-07T22:30:12;100920.44;;;8.05;100.00
57900;BME280;60605;53.716;19.940;2023-04-07T22:35:14;100926.12;;;7.92;100.00
57900;BME280;60605;53.716;19.940;2023-04-07T22:40:16;100931.02;;;7.77;100.00
57900;BME280;60605;53.716;19.940;2023-04-07T22:45:19;100934.30;;;7.60;100.00
57900;BME280;60605;53.716;19.940;2023-04-07T22:50:21;100936.80;;;7.44;100.00
57900;BME280;60605;53.716;19.940;2023-04-07T22:55:23;100942.84;;;7.28;100.00
57900;BME280;60605;53.716;19.940;2023-04-07T23:00:26;100945.73;;;7.13;100.00
57900;BME280;60605;53.716;19.940;2023-04-07T23:05:28;100950.14;;;7.01;100.00
57900;BME280;60605;53.716;19.940;2023-04-07T23:10:31;100959.08;;;6.91;100.00
57900;BME280;60605;53.716;19.940;2023-04-07T23:15:33;100958.75;;;6.81;100.00
57900;BME280;60605;53.716;19.940;2023-04-07T23:20:36;100962.48;;;6.72;100.00
57900;BME280;60605;53.716;19.940;2023-04-07T23:25:38;100965.39;;;6.63;100.00
57900;BME280;60605;53.716;19.940;2023-04-07T23:30:40;100966.99;;;6.56;100.00
57900;BME280;60605;53.716;19.940;2023-04-07T23:35:42;100968.80;;;6.51;100.00
57900;BME280;60605;53.716;19.940;2023-04-07T23:40:44;100970.56;;;6.46;100.00
57900;BME280;60605;53.716;19.940;2023-04-07T23:45:46;100971.35;;;6.40;100.00
57900;BME280;60605;53.716;19.940;2023-04-07T23:50:48;100968.00;;;6.33;100.00
57900;BME280;60605;53.716;19.940;2023-04-07T23:55:51;100973.18;;;6.25;100.00
